createdAt,value
2023-03-10T00:03:37.672Z,1.27
2023-03-10T00:08:41.281Z,1.37
2023-03-10T00:13:46.365Z,1.50
2023-03-10T00:18:50.007Z,1.33
2023-03-10T00:23:54.280Z,1.37
2023-03-10T00:28:59.257Z,1.23
2023-03-10T00:34:02.977Z,1.40
2023-03-10T00:39:06.607Z,1.00
2023-03-10T00:44:11.689Z,1.00
2023-03-10T00:49:18.042Z,1.00
2023-03-10T00:54:21.757Z,1.10
2023-03-10T00:59:29.618Z,1.20
2023-03-10T01:04:36.286Z,1.33
2023-03-10T01:09:39.715Z,1.30
2023-03-10T01:14:44.773Z,1.50
2023-03-10T01:19:48.497Z,1.80
2023-03-10T01:24:52.201Z,1.47
2023-03-10T01:29:57.312Z,1.50
2023-03-10T01:35:00.876Z,1.50
2023-03-10T01:40:05.741Z,1.40
2023-03-10T01:45:32.638Z,1.43
2023-03-10T01:50:36.329Z,1.60
2023-03-10T01:55:43.501Z,1.80
2023-03-10T02:00:48.774Z,1.60
2023-03-10T02:05:57.348Z,1.90
2023-03-10T02:11:01.105Z,2.20
2023-03-10T02:16:06.884Z,1.97
2023-03-10T02:21:17.449Z,1.90
2023-03-10T02:26:27.882Z,1.93
2023-03-10T02:31:33.085Z,2.00
2023-03-10T02:36:37.093Z,2.07
2023-03-10T02:41:44.256Z,2.40
2023-03-10T02:46:52.867Z,2.57
2023-03-10T02:52:00.928Z,2.83
2023-03-10T02:57:04.537Z,2.80
2023-03-10T03:02:09.973Z,2.83
2023-03-10T03:07:13.997Z,2.93
2023-03-10T03:12:17.763Z,2.83
2023-03-10T03:17:22.929Z,3.00
2023-03-10T03:22:26.467Z,2.67
2023-03-10T03:27:31.802Z,3.20
2023-03-10T03:32:37.753Z,2.97
2023-03-10T03:37:42.163Z,2.67
2023-03-10T03:42:47.106Z,2.60
2023-03-10T03:47:52.373Z,3.00
2023-03-10T03:52:55.915Z,3.00
2023-03-10T03:58:03.487Z,3.23
2023-03-10T04:03:09.694Z,2.93
2023-03-10T04:08:14.904Z,6.73
2023-03-10T04:13:18.429Z,46.57
2023-03-10T04:18:24.014Z,25.87
2023-03-10T04:23:27.518Z,20.63
2023-03-10T04:28:31.760Z,44.30
2023-03-10T04:33:37.057Z,11.27
2023-03-10T04:38:41.605Z,20.97
2023-03-10T04:43:47.609Z,19.90
2023-03-10T04:48:55.945Z,19.90
2023-03-10T04:54:00.371Z,7.17
2023-03-10T04:59:07.088Z,29.00
2023-03-10T05:04:12.393Z,8.37
2023-03-10T05:09:15.994Z,13.63
2023-03-10T05:14:19.706Z,6.93
2023-03-10T05:19:26.031Z,11.77
2023-03-10T05:24:33.057Z,5.03
2023-03-10T05:29:36.719Z,4.87
2023-03-10T05:34:48.241Z,4.20
2023-03-10T05:39:52.316Z,3.60
2023-03-10T05:44:58.808Z,3.00
2023-03-10T05:50:03.901Z,3.37
2023-03-10T05:55:09.584Z,3.20
2023-03-10T06:00:15.631Z,3.60
2023-03-10T06:05:24.944Z,3.37
2023-03-10T06:10:28.312Z,3.03
2023-03-10T06:15:32.037Z,3.20
2023-03-10T06:20:40.199Z,4.03
2023-03-10T06:25:44.005Z,3.30
2023-03-10T06:30:47.601Z,3.70
2023-03-10T06:35:52.428Z,3.03
2023-03-10T06:40:56.063Z,2.93
2023-03-10T06:45:59.528Z,3.00
2023-03-10T06:51:07.181Z,2.40
2023-03-10T06:56:13.539Z,2.40
2023-03-10T07:01:25.646Z,2.40
2023-03-10T07:06:30.888Z,2.57
2023-03-10T07:11:34.672Z,2.27
2023-03-10T07:16:40.693Z,2.13
2023-03-10T07:21:45.829Z,2.20
2023-03-10T07:26:49.425Z,2.50
2023-03-10T07:31:54.082Z,2.43
2023-03-10T07:36:58.853Z,2.73
2023-03-10T07:42:02.248Z,2.53
2023-03-10T07:47:08.685Z,2.20
2023-03-10T07:52:14.564Z,2.23
2023-03-10T07:57:18.159Z,2.37
2023-03-10T08:02:21.533Z,1.93
2023-03-10T08:07:27.822Z,2.20
2023-03-10T08:12:31.240Z,2.07
2023-03-10T08:17:34.630Z,1.90
2023-03-10T08:22:39.427Z,2.33
2023-03-10T08:27:42.935Z,2.00
2023-03-10T08:32:47.015Z,1.63
2023-03-10T08:37:55.234Z,2.07
2023-03-10T08:42:59.047Z,1.77
2023-03-10T08:48:02.545Z,1.77
2023-03-10T08:53:07.657Z,1.87
2023-03-10T08:58:11.078Z,1.85
2023-03-10T09:03:15.663Z,1.70
2023-03-10T09:08:20.779Z,1.80
2023-03-10T09:13:24.636Z,1.75
2023-03-10T09:18:28.010Z,1.70
2023-03-10T09:23:32.876Z,1.80
2023-03-10T09:28:36.541Z,1.77
2023-03-10T09:33:40.320Z,1.58
2023-03-10T09:38:45.231Z,1.55
2023-03-10T09:43:56.110Z,1.50
2023-03-10T09:49:06.625Z,2.10
2023-03-10T09:54:34.401Z,1.80
2023-03-10T09:59:42.581Z,1.63
2023-03-10T10:04:47.131Z,1.42
2023-03-10T10:09:58.629Z,1.50
2023-03-10T10:15:08.817Z,1.30
2023-03-10T10:20:21.505Z,1.00
2023-03-10T10:25:27.178Z,1.20
2023-03-10T10:30:36.481Z,1.00
2023-03-10T10:35:41.932Z,0.90
2023-03-10T10:40:52.371Z,0.93
2023-03-10T10:45:58.295Z,0.75
2023-03-10T10:51:02.471Z,0.90
2023-03-10T10:56:15.164Z,1.40
2023-03-10T11:01:18.629Z,1.38
2023-03-10T11:06:29.155Z,1.30
2023-03-10T11:11:39.057Z,1.15
2023-03-10T11:16:52.295Z,1.23
2023-03-10T11:22:00.949Z,1.40
2023-03-10T11:27:11.059Z,1.00
2023-03-10T11:32:25.654Z,0.60
2023-03-10T11:37:34.355Z,1.10
2023-03-10T11:42:48.410Z,1.20
2023-03-10T11:48:01.754Z,0.60
2023-03-10T11:53:12.496Z,0.50
2023-03-10T11:58:25.452Z,0.70
2023-03-10T12:03:40.201Z,1.08
2023-03-10T12:08:44.243Z,1.50
2023-03-10T12:13:51.550Z,1.60
2023-03-10T12:18:55.050Z,15.20
2023-03-10T12:24:00.559Z,4.18
2023-03-10T12:29:42.083Z,2.40
2023-03-10T12:34:45.467Z,1.67
2023-03-10T12:39:49.200Z,1.90
2023-03-10T12:44:56.801Z,2.03
2023-03-10T12:50:16.381Z,5.33
2023-03-10T12:55:24.388Z,3.50
2023-03-10T13:00:42.254Z,3.90
2023-03-10T13:06:00.323Z,4.05
2023-03-10T13:11:04.980Z,3.10
2023-03-10T13:16:10.160Z,5.07
2023-03-10T13:21:24.909Z,4.43
2023-03-10T13:26:30.189Z,3.10
2023-03-10T13:31:35.723Z,1.77
2023-03-10T13:36:41.129Z,5.77
2023-03-10T13:41:48.225Z,4.17
2023-03-10T13:46:55.186Z,2.87
2023-03-10T13:52:00.580Z,1.60
2023-03-10T13:57:12.123Z,1.70
2023-03-10T14:02:20.410Z,1.60
2023-03-10T14:07:26.003Z,1.50
2023-03-10T14:12:38.086Z,1.70
2023-03-10T14:17:44.347Z,1.97
2023-03-10T14:22:48.119Z,2.00
2023-03-10T14:27:56.737Z,2.17
2023-03-10T14:33:03.005Z,2.27
2023-03-10T14:38:06.585Z,2.80
2023-03-10T14:43:15.996Z,2.93
2023-03-10T14:48:23.914Z,3.40
2023-03-10T14:53:28.339Z,3.50
2023-03-10T14:58:34.525Z,4.13
2023-03-10T15:03:39.452Z,3.80
2023-03-10T15:08:42.904Z,4.40
2023-03-10T15:13:46.248Z,4.37
2023-03-10T15:18:53.234Z,4.50
2023-03-10T15:23:56.825Z,4.67
2023-03-10T15:29:00.428Z,5.40
2023-03-10T15:34:05.637Z,4.87
2023-03-10T15:39:11.046Z,5.33
2023-03-10T15:44:16.009Z,5.57
2023-03-10T15:49:20.790Z,6.33
2023-03-10T15:54:24.666Z,5.50
2023-03-10T15:59:29.457Z,5.60
2023-03-10T16:04:34.705Z,5.03
2023-03-10T16:09:38.821Z,5.00
2023-03-10T16:14:42.466Z,5.30
2023-03-10T16:19:47.474Z,6.13
2023-03-10T16:24:50.870Z,4.77
2023-03-10T16:29:54.237Z,4.97
2023-03-10T16:35:00.117Z,5.10
2023-03-10T16:40:04.502Z,5.23
2023-03-10T16:45:09.146Z,5.90
2023-03-10T16:50:14.623Z,5.43
2023-03-10T16:55:20.087Z,5.47
2023-03-10T17:00:24.577Z,5.37
2023-03-10T17:05:29.475Z,5.63
2023-03-10T17:10:33.462Z,5.57
2023-03-10T17:15:36.808Z,5.10
2023-03-10T17:20:41.569Z,5.33
2023-03-10T17:25:45.757Z,5.07
2023-03-10T17:30:49.144Z,5.70
2023-03-10T17:35:54.007Z,5.63
2023-03-10T17:40:58.036Z,5.87
2023-03-10T17:46:03.739Z,5.60
2023-03-10T17:51:11.676Z,6.00
2023-03-10T17:56:16.285Z,5.93
2023-03-10T18:01:23.348Z,5.97
2023-03-10T18:06:30.700Z,5.63
2023-03-10T18:11:35.971Z,6.00
2023-03-10T18:16:41.297Z,5.63
2023-03-10T18:21:46.347Z,5.57
2023-03-10T18:26:49.794Z,5.73
2023-03-10T18:31:53.223Z,5.40
2023-03-10T18:36:58.250Z,5.37
2023-03-10T18:42:01.902Z,5.63
2023-03-10T18:47:05.617Z,6.27
2023-03-10T18:52:15.948Z,6.00
2023-03-10T18:57:19.324Z,5.20
2023-03-10T19:02:22.900Z,5.40
2023-03-10T19:07:28.035Z,5.10
2023-03-10T19:12:31.522Z,4.90
2023-03-10T19:17:35.657Z,4.57
2023-03-10T19:22:42.305Z,4.80
2023-03-10T19:27:45.906Z,4.60
2023-03-10T19:32:50.412Z,4.70
2023-03-10T19:37:58.655Z,3.93
2023-03-10T19:43:02.333Z,4.20
2023-03-10T19:48:06.060Z,4.30
2023-03-10T19:53:11.170Z,4.40
2023-03-10T19:58:14.538Z,4.53
2023-03-10T20:03:18.246Z,4.67
2023-03-10T20:08:23.546Z,4.20
2023-03-10T20:13:26.980Z,4.03
2023-03-10T20:18:30.703Z,3.70
2023-03-10T20:23:36.496Z,3.40
2023-03-10T20:28:40.819Z,3.77
2023-03-10T20:33:44.632Z,4.33
2023-03-10T20:38:49.771Z,4.17
2023-03-10T20:43:53.848Z,3.73
2023-03-10T20:48:57.533Z,3.40
2023-03-10T20:54:02.710Z,3.60
2023-03-10T20:59:06.366Z,4.10
2023-03-10T21:04:10.576Z,3.80
2023-03-10T21:09:16.594Z,4.27
2023-03-10T21:14:20.197Z,4.00
2023-03-10T21:19:23.935Z,3.80
2023-03-10T21:24:28.756Z,3.90
2023-03-10T21:29:32.168Z,4.17
2023-03-10T21:34:35.949Z,3.90
2023-03-10T21:39:40.962Z,4.10
2023-03-10T21:44:44.645Z,3.53
2023-03-10T21:49:48.333Z,4.30
2023-03-10T21:54:53.093Z,4.20
2023-03-10T21:59:56.721Z,3.40
2023-03-10T22:05:00.138Z,4.00
2023-03-10T22:10:05.788Z,4.13
2023-03-10T22:15:13.840Z,4.50
2023-03-10T22:20:20.678Z,4.30
2023-03-10T22:25:26.761Z,3.80
2023-03-10T22:30:31.769Z,5.13
2023-03-10T22:35:35.392Z,4.30
2023-03-10T22:40:41.170Z,3.80
2023-03-10T22:45:44.547Z,3.90
2023-03-10T22:50:48.170Z,4.30
2023-03-10T22:55:52.917Z,3.73
2023-03-10T23:00:56.436Z,3.70
2023-03-10T23:06:01.829Z,4.20
2023-03-10T23:11:10.274Z,4.53
2023-03-10T23:16:13.913Z,3.67
2023-03-10T23:21:17.341Z,3.73
2023-03-10T23:26:22.434Z,4.10
2023-03-10T23:31:25.836Z,3.90
2023-03-10T23:36:29.214Z,3.67
2023-03-10T23:41:34.041Z,3.70
2023-03-10T23:46:37.746Z,4.30
2023-03-10T23:51:41.103Z,4.00
2023-03-10T23:56:45.876Z,4.00
